Time;durP1;ratioP1;P1;durP2;ratioP2;P2;SDS_P1;SDS_P2;PMS_P1;PMS_P2;Temp;Humidity;BMP_temperature;BMP_pressure;BME280_temperature;BME280_humidity;BME280_pressure;Samples;Min_cycle;Max_cycle;Signal;HPM_P1;HPM_P2
2023/07/28 00:02:07;;;;;;;9.43;4.13;;;18.40;91.20;;;;;;5044927;28;20061;-74
2023/07/28 00:04:35;;;;;;;12.70;6.00;;;18.40;91.20;;;;;;5046059;28;20452;-74
2023/07/28 00:07:04;;;;;;;11.32;5.38;;;18.40;91.20;;;;;;5050314;28;20046;-74
2023/07/28 00:09:31;;;;;;;8.60;3.85;;;18.40;91.40;;;;;;5030850;28;20060;-75
2023/07/28 00:11:58;;;;;;;11.38;4.80;;;18.40;91.20;;;;;;5047645;28;20071;-74
2023/07/28 00:14:25;;;;;;;9.70;4.57;;;18.40;91.10;;;;;;5044010;28;20053;-74
2023/07/28 00:16:53;;;;;;;10.85;5.32;;;18.40;91.20;;;;;;5080281;28;20128;-74
2023/07/28 00:19:20;;;;;;;12.35;5.30;;;18.40;91.20;;;;;;5048383;28;20463;-74
2023/07/28 00:21:48;;;;;;;11.98;5.60;;;18.40;91.20;;;;;;5081635;28;20049;-74
2023/07/28 00:24:16;;;;;;;11.68;4.70;;;18.40;91.20;;;;;;5050392;28;20073;-74
2023/07/28 00:26:43;;;;;;;11.40;5.27;;;18.40;91.20;;;;;;5047099;28;20481;-74
2023/07/28 00:29:12;;;;;;;14.45;6.35;;;18.40;91.20;;;;;;5048156;28;20111;-74
2023/07/28 00:31:38;;;;;;;13.32;6.03;;;18.40;91.20;;;;;;5047597;28;20061;-74
2023/07/28 00:34:05;;;;;;;13.95;6.00;;;18.40;91.30;;;;;;5045595;28;20119;-74
2023/07/28 00:36:32;;;;;;;7.65;3.17;;;18.40;91.20;;;;;;5048137;28;20497;-74
2023/07/28 00:38:59;;;;;;;10.80;4.83;;;18.40;91.30;;;;;;5048286;28;20080;-74
2023/07/28 00:41:28;;;;;;;9.15;4.60;;;18.40;91.20;;;;;;5031030;28;20061;-74
2023/07/28 00:43:55;;;;;;;12.35;5.45;;;18.40;91.20;;;;;;5047198;28;20629;-74
2023/07/28 00:46:22;;;;;;;12.55;4.68;;;18.40;91.20;;;;;;5031618;28;20149;-74
2023/07/28 00:48:49;;;;;;;11.65;5.28;;;18.40;91.20;;;;;;5048058;28;20060;-75
2023/07/28 00:51:16;;;;;;;11.00;4.00;;;18.40;91.10;;;;;;5031048;28;20054;-74
2023/07/28 00:53:44;;;;;;;12.55;4.82;;;18.40;91.20;;;;;;5079360;28;20480;-74
2023/07/28 00:56:12;;;;;;;12.38;5.93;;;18.40;91.20;;;;;;5031089;28;20595;-74
2023/07/28 00:58:40;;;;;;;12.68;4.60;;;18.40;91.20;;;;;;5048060;28;20261;-74
2023/07/28 01:01:07;;;;;;;10.80;4.47;;;18.40;91.20;;;;;;5030200;28;20041;-74
2023/07/28 01:03:34;;;;;;;10.60;4.00;;;18.40;91.10;;;;;;5045960;28;20064;-74
2023/07/28 01:06:14;;;;;;;16.45;7.80;;;18.40;91.20;;;;;;5064327;28;20533;-74
2023/07/28 01:08:47;;;;;;;8.23;4.05;;;18.40;91.40;;;;;;5048528;28;20057;-74
2023/07/28 01:11:14;;;;;;;14.15;6.65;;;18.40;91.40;;;;;;5063978;28;20050;-74
2023/07/28 01:13:43;;;;;;;15.55;6.10;;;18.40;91.50;;;;;;5047526;28;20129;-74
2023/07/28 01:16:10;;;;;;;16.77;7.90;;;18.40;91.40;;;;;;5025072;28;20592;-74
2023/07/28 01:18:37;;;;;;;18.20;7.55;;;18.40;91.50;;;;;;5029959;28;20140;-74
2023/07/28 01:21:07;;;;;;;12.85;5.85;;;18.40;91.50;;;;;;5030669;28;20053;-74
2023/07/28 01:23:42;;;;;;;14.95;6.68;;;18.40;91.70;;;;;;5039633;28;20119;-75
2023/07/28 01:26:14;;;;;;;16.73;7.20;;;18.40;91.60;;;;;;5030934;28;20539;-74
2023/07/28 01:28:44;;;;;;;14.43;6.97;;;18.40;91.60;;;;;;5030715;28;20057;-74
2023/07/28 01:31:11;;;;;;;14.23;7.90;;;18.40;91.60;;;;;;5030379;28;20196;-74
2023/07/28 01:33:38;;;;;;;12.65;6.53;;;18.40;91.80;;;;;;5044092;28;20500;-74
2023/07/28 01:36:05;;;;;;;13.73;5.57;;;18.40;91.70;;;;;;5062600;28;20084;-74
2023/07/28 01:38:32;;;;;;;15.52;7.53;;;18.40;91.70;;;;;;5046468;28;20132;-74
2023/07/28 01:40:58;;;;;;;14.83;7.10;;;18.40;91.70;;;;;;5030065;28;20462;-74
2023/07/28 01:43:25;;;;;;;16.50;7.18;;;18.40;91.60;;;;;;5048666;28;20168;-74
2023/07/28 01:45:54;;;;;;;15.82;7.32;;;18.40;91.70;;;;;;5030500;28;20428;-74
2023/07/28 01:48:21;;;;;;;16.33;7.88;;;18.40;91.70;;;;;;5063072;28;20514;-74
2023/07/28 01:50:48;;;;;;;17.80;8.10;;;18.40;91.60;;;;;;5029340;28;20269;-74
2023/07/28 01:53:15;;;;;;;17.77;7.70;;;18.40;91.70;;;;;;5046301;28;20502;-74
2023/07/28 01:55:42;;;;;;;16.38;8.07;;;18.40;91.80;;;;;;5064040;28;20044;-74
2023/07/28 01:58:10;;;;;;;15.68;8.15;;;18.40;91.70;;;;;;5024437;28;20145;-74
2023/07/28 02:00:37;;;;;;;18.42;7.90;;;18.40;91.70;;;;;;5030053;28;20056;-74
2023/07/28 02:03:07;;;;;;;19.38;8.18;;;18.40;91.70;;;;;;5025106;28;20124;-74
2023/07/28 02:05:33;;;;;;;26.53;8.97;;;18.40;91.70;;;;;;5078840;28;20053;-74
2023/07/28 02:08:01;;;;;;;18.80;8.43;;;18.40;91.80;;;;;;5042280;28;20053;-74
2023/07/28 02:10:28;;;;;;;13.65;7.05;;;18.40;91.70;;;;;;5045581;28;20644;-75
2023/07/28 02:12:55;;;;;;;14.48;7.50;;;18.40;91.70;;;;;;5041910;28;20581;-74
2023/07/28 02:15:22;;;;;;;15.82;7.95;;;18.40;91.60;;;;;;5063489;28;20045;-74
2023/07/28 02:17:50;;;;;;;15.23;6.33;;;18.40;91.70;;;;;;5030079;28;20136;-74
2023/07/28 02:20:18;;;;;;;13.00;6.18;;;18.40;91.70;;;;;;5041342;28;20053;-74
2023/07/28 02:22:45;;;;;;;14.40;6.80;;;18.40;91.60;;;;;;5078312;28;20087;-74
2023/07/28 02:25:12;;;;;;;13.82;6.50;;;18.40;91.60;;;;;;5021848;28;20681;-75
2023/07/28 02:27:39;;;;;;;18.75;8.50;;;18.40;91.60;;;;;;5045898;28;20064;-74
2023/07/28 02:30:07;;;;;;;16.13;6.77;;;18.40;91.60;;;;;;5029633;28;20057;-74
2023/07/28 02:32:34;;;;;;;15.23;7.25;;;18.40;91.50;;;;;;5043226;28;20175;-75
2023/07/28 02:35:01;;;;;;;15.23;7.65;;;18.40;91.60;;;;;;5047043;28;20586;-74
2023/07/28 02:37:30;;;;;;;13.55;7.50;;;18.40;91.50;;;;;;5046707;28;20045;-75
2023/07/28 02:39:57;;;;;;;18.25;8.40;;;18.40;91.50;;;;;;5046941;28;20056;-74
2023/07/28 02:42:25;;;;;;;19.50;8.17;;;18.40;91.50;;;;;;5025674;28;20472;-74
2023/07/28 02:44:52;;;;;;;20.40;7.95;;;18.40;91.40;;;;;;5046269;28;20127;-74
2023/07/28 02:47:19;;;;;;;19.00;9.27;;;18.40;91.40;;;;;;5045671;28;20048;-75
2023/07/28 02:49:45;;;;;;;15.98;7.47;;;18.40;91.40;;;;;;5046395;28;20076;-74
2023/07/28 02:52:12;;;;;;;17.08;7.15;;;18.40;91.50;;;;;;5079845;28;20088;-75
2023/07/28 02:54:40;;;;;;;17.47;6.60;;;18.40;91.40;;;;;;5028580;28;20132;-74
2023/07/28 02:57:07;;;;;;;12.70;6.65;;;18.40;91.40;;;;;;5029635;28;20073;-74
2023/07/28 02:59:35;;;;;;;16.08;8.13;;;18.40;91.50;;;;;;5029441;28;20078;-75
2023/07/28 03:02:02;;;;;;;15.23;7.50;;;18.40;91.40;;;;;;5043360;28;20064;-75
2023/07/28 03:04:29;;;;;;;16.70;7.97;;;18.40;91.50;;;;;;5041388;28;20045;-75
2023/07/28 03:07:22;;;;;;;15.10;7.60;;;18.40;91.50;;;;;;5042195;28;20058;-74
2023/07/28 03:09:57;;;;;;;15.02;6.43;;;18.40;91.50;;;;;;5029473;28;20053;-75
2023/07/28 03:12:24;;;;;;;17.60;7.68;;;18.40;91.50;;;;;;5029409;28;20046;-75
2023/07/28 03:14:51;;;;;;;17.65;7.90;;;18.40;91.40;;;;;;5045923;28;20052;-74
2023/07/28 03:17:18;;;;;;;14.05;7.43;;;18.40;91.40;;;;;;5029631;28;20049;-75
2023/07/28 03:19:45;;;;;;;18.07;8.20;;;18.40;91.40;;;;;;5028464;28;20131;-74
2023/07/28 03:22:12;;;;;;;16.20;7.47;;;18.40;91.50;;;;;;5046118;28;20053;-74
2023/07/28 03:24:39;;;;;;;15.55;7.18;;;18.40;91.50;;;;;;5017489;28;20469;-75
2023/07/28 03:27:08;;;;;;;17.63;7.10;;;18.40;91.50;;;;;;5046888;28;20229;-74
2023/07/28 03:29:35;;;;;;;17.63;8.05;;;18.40;91.40;;;;;;5046169;28;20140;-75
2023/07/28 03:32:02;;;;;;;12.77;7.13;;;18.40;91.50;;;;;;5045450;28;20049;-74
2023/07/28 03:34:29;;;;;;;15.57;6.55;;;18.40;91.50;;;;;;5045983;28;20888;-75
2023/07/28 03:36:58;;;;;;;17.08;6.80;;;18.40;91.50;;;;;;5028475;28;20050;-74
2023/07/28 03:39:25;;;;;;;16.58;7.32;;;18.50;91.40;;;;;;5028413;28;20050;-75
2023/07/28 03:41:52;;;;;;;18.00;8.02;;;18.40;91.50;;;;;;5028786;28;20119;-75
2023/07/28 03:44:23;;;;;;;13.37;7.60;;;18.40;91.50;;;;;;5027572;28;20081;-75
2023/07/28 03:46:50;;;;;;;18.38;8.57;;;18.50;91.50;;;;;;5061508;28;20143;-75
2023/07/28 03:49:17;;;;;;;14.07;8.15;;;18.50;91.50;;;;;;5042966;28;20137;-75
2023/07/28 03:51:44;;;;;;;16.35;7.80;;;18.50;91.50;;;;;;5045353;28;20048;-74
2023/07/28 03:54:11;;;;;;;18.58;7.45;;;18.50;91.50;;;;;;5054026;28;20587;-74
2023/07/28 03:56:38;;;;;;;17.47;8.10;;;18.50;91.50;;;;;;5044283;28;20144;-75
2023/07/28 03:59:05;;;;;;;18.25;8.40;;;18.50;91.60;;;;;;5028690;28;20046;-75
2023/07/28 04:01:33;;;;;;;15.40;7.82;;;18.50;91.50;;;;;;5028699;28;20053;-74
2023/07/28 04:04:03;;;;;;;14.23;7.45;;;18.50;91.50;;;;;;5041831;28;20046;-74
2023/07/28 04:06:43;;;;;;;17.50;8.43;;;18.50;91.60;;;;;;5062482;28;20053;-75
2023/07/28 04:09:11;;;;;;;21.87;8.87;;;18.50;91.50;;;;;;5025428;28;20681;-74
2023/07/28 04:11:38;;;;;;;18.83;8.80;;;18.50;91.50;;;;;;5061109;28;20057;-75
2023/07/28 04:14:05;;;;;;;17.30;8.80;;;18.50;91.50;;;;;;5047358;28;20053;-75
2023/07/28 04:16:34;;;;;;;18.70;8.90;;;18.50;91.50;;;;;;5048415;28;20530;-75
2023/07/28 04:19:01;;;;;;;15.88;8.52;;;18.50;91.50;;;;;;5032077;28;20066;-75
2023/07/28 04:21:28;;;;;;;17.67;7.93;;;18.50;91.50;;;;;;5031484;28;20135;-75
2023/07/28 04:23:55;;;;;;;18.17;7.82;;;18.50;91.30;;;;;;5049045;28;20076;-75
2023/07/28 04:26:24;;;;;;;17.65;7.50;;;18.50;91.20;;;;;;5028164;28;20078;-74
2023/07/28 04:28:56;;;;;;;19.20;8.52;;;18.50;91.20;;;;;;5062486;28;20463;-75
2023/07/28 04:31:23;;;;;;;16.90;8.60;;;18.50;91.20;;;;;;5020894;28;20148;-75
2023/07/28 04:33:58;;;;;;;17.03;9.50;;;18.50;91.20;;;;;;5031944;28;20621;-74
2023/07/28 04:36:35;;;;;;;19.55;8.88;;;18.50;91.40;;;;;;5040100;28;20053;-74
2023/07/28 04:39:02;;;;;;;15.80;6.97;;;18.50;91.40;;;;;;5048492;28;20050;-75
2023/07/28 04:41:29;;;;;;;18.33;9.23;;;18.60;91.40;;;;;;5048213;28;20050;-75
2023/07/28 04:43:57;;;;;;;15.90;7.25;;;18.50;91.20;;;;;;5032181;28;20068;-74
2023/07/28 04:46:26;;;;;;;15.77;7.97;;;18.50;91.20;;;;;;5064789;28;20127;-74
2023/07/28 04:48:59;;;;;;;18.45;8.60;;;18.50;91.10;;;;;;5064726;28;20085;-74
2023/07/28 04:51:46;;;;;;;17.25;9.45;;;18.50;91.20;;;;;;5044602;28;20053;-75
2023/07/28 04:54:33;;;;;;;17.52;8.98;;;18.50;91.20;;;;;;5008620;28;20049;-75
2023/07/28 04:57:00;;;;;;;16.23;8.35;;;18.50;91.20;;;;;;5064402;28;20534;-74
2023/07/28 04:59:33;;;;;;;14.80;8.13;;;18.50;91.30;;;;;;5031604;28;20075;-75
2023/07/28 05:02:00;;;;;;;16.88;7.88;;;18.50;91.30;;;;;;5064548;28;20045;-74
2023/07/28 05:04:29;;;;;;;15.85;8.32;;;18.50;91.40;;;;;;5030878;28;20050;-74
2023/07/28 05:06:56;;;;;;;19.38;9.30;;;18.50;91.50;;;;;;5030259;28;20946;-74
2023/07/28 05:09:23;;;;;;;17.77;9.20;;;18.50;91.50;;;;;;5064770;28;20096;-74
2023/07/28 05:11:50;;;;;;;16.90;8.60;;;18.50;91.50;;;;;;5049168;28;20053;-74
2023/07/28 05:14:18;;;;;;;20.10;9.82;;;18.50;91.60;;;;;;5039322;28;20042;-74
2023/07/28 05:16:46;;;;;;;18.65;9.25;;;18.50;91.60;;;;;;5030752;28;20132;-74
2023/07/28 05:19:13;;;;;;;16.42;8.88;;;18.50;91.50;;;;;;5047850;28;20124;-74
2023/07/28 05:21:42;;;;;;;18.20;9.05;;;18.50;91.50;;;;;;5047214;28;20057;-74
2023/07/28 05:24:12;;;;;;;21.20;9.20;;;18.50;91.50;;;;;;5046904;28;20046;-75
2023/07/28 05:26:39;;;;;;;16.45;8.02;;;18.50;91.60;;;;;;5030547;28;20056;-74
2023/07/28 05:29:05;;;;;;;17.40;8.68;;;18.60;91.50;;;;;;5046858;28;20064;-75
2023/07/28 05:31:33;;;;;;;20.85;9.38;;;18.50;91.50;;;;;;5029214;28;20081;-75
2023/07/28 05:34:00;;;;;;;18.67;9.40;;;18.50;91.50;;;;;;5029938;28;20042;-74
2023/07/28 05:36:28;;;;;;;15.83;8.47;;;18.60;91.50;;;;;;5046302;28;20056;-75
2023/07/28 05:39:01;;;;;;;17.77;8.65;;;18.60;91.50;;;;;;5046892;28;20135;-75
2023/07/28 05:41:37;;;;;;;17.00;9.98;;;18.60;91.60;;;;;;5062039;28;20054;-75
2023/07/28 05:44:05;;;;;;;18.00;8.55;;;18.60;91.60;;;;;;5054505;28;20523;-74
2023/07/28 05:46:32;;;;;;;20.02;9.35;;;18.60;91.60;;;;;;5042599;28;20076;-75
2023/07/28 05:48:59;;;;;;;18.47;9.30;;;18.60;91.50;;;;;;5053863;28;20057;-75
2023/07/28 05:51:26;;;;;;;20.80;9.50;;;18.60;91.40;;;;;;5057940;28;20068;-74
2023/07/28 05:53:53;;;;;;;19.00;8.98;;;18.60;91.30;;;;;;5060088;28;20547;-75
2023/07/28 05:56:22;;;;;;;19.48;8.48;;;18.60;91.20;;;;;;5035689;28;20630;-74
2023/07/28 05:58:50;;;;;;;20.40;9.77;;;18.60;91.40;;;;;;5036041;28;20045;-74
2023/07/28 06:01:18;;;;;;;17.83;9.80;;;18.60;91.20;;;;;;5063376;28;20473;-74
2023/07/28 06:04:04;;;;;;;17.15;8.32;;;18.60;91.30;;;;;;5045821;28;20478;-75
2023/07/28 06:06:34;;;;;;;15.35;8.77;;;18.70;91.20;;;;;;5069609;28;20096;-75
2023/07/28 06:09:01;;;;;;;19.52;8.70;;;18.60;91.20;;;;;;5053485;28;20123;-75
2023/07/28 06:11:29;;;;;;;17.30;8.80;;;18.60;91.20;;;;;;5058166;28;20050;-75
2023/07/28 06:13:57;;;;;;;18.50;8.10;;;18.70;91.30;;;;;;5037271;28;20048;-75
2023/07/28 06:16:25;;;;;;;15.10;7.38;;;18.70;91.50;;;;;;5059979;28;20045;-75
2023/07/28 06:18:52;;;;;;;15.13;7.85;;;18.70;91.40;;;;;;5041138;28;20099;-75
2023/07/28 06:21:22;;;;;;;13.43;7.13;;;18.70;91.40;;;;;;5081118;28;20096;-75
2023/07/28 06:23:50;;;;;;;19.80;9.18;;;18.80;91.40;;;;;;5053319;28;20143;-75
2023/07/28 06:26:18;;;;;;;14.97;8.93;;;18.80;91.30;;;;;;5063329;28;20058;-75
2023/07/28 06:28:46;;;;;;;12.95;6.72;;;18.80;91.30;;;;;;5027570;28;20130;-74
2023/07/28 06:31:13;;;;;;;12.68;6.80;;;18.80;91.20;;;;;;5028704;28;20073;-74
2023/07/28 06:33:40;;;;;;;14.45;7.30;;;18.80;91.10;;;;;;5044511;28;20104;-74
2023/07/28 06:36:07;;;;;;;14.98;7.60;;;18.80;91.00;;;;;;5075779;28;20559;-74
2023/07/28 06:38:34;;;;;;;14.93;7.50;;;18.80;91.00;;;;;;5060447;28;20053;-74
2023/07/28 06:41:01;;;;;;;12.02;7.00;;;18.80;90.90;;;;;;5026013;28;20136;-74
2023/07/28 06:43:28;;;;;;;15.63;8.30;;;18.80;90.60;;;;;;5027909;28;20443;-74
2023/07/28 06:45:57;;;;;;;15.00;7.40;;;18.90;90.50;;;;;;5028075;28;20057;-74
2023/07/28 06:48:24;;;;;;;13.18;7.30;;;18.80;90.30;;;;;;5025678;28;20045;-74
2023/07/28 06:50:51;;;;;;;13.47;7.57;;;18.90;90.20;;;;;;5077869;28;20065;-74
2023/07/28 06:53:18;;;;;;;13.85;6.60;;;18.90;90.20;;;;;;5031609;28;20053;-75
2023/07/28 06:55:45;;;;;;;14.35;7.45;;;18.90;90.20;;;;;;5028444;28;20053;-75
2023/07/28 06:58:12;;;;;;;14.80;7.57;;;18.90;90.10;;;;;;5029302;28;20135;-75
2023/07/28 07:00:39;;;;;;;11.98;6.95;;;18.90;90.10;;;;;;5043436;28;20049;-75
2023/07/28 07:03:08;;;;;;;15.10;7.00;;;18.90;90.20;;;;;;5044220;28;20100;-75
2023/07/28 07:05:35;;;;;;;14.15;6.28;;;18.90;90.00;;;;;;5043492;28;20054;-75
2023/07/28 07:08:03;;;;;;;12.88;7.43;;;19.00;89.70;;;;;;5061904;28;20519;-75
2023/07/28 07:10:30;;;;;;;10.50;6.80;;;19.00;89.60;;;;;;5060779;28;20083;-75
2023/07/28 07:12:57;;;;;;;12.25;7.13;;;19.00;89.80;;;;;;5050176;28;20053;-75
2023/07/28 07:15:25;;;;;;;14.00;7.77;;;19.10;90.00;;;;;;5036027;28;20172;-75
2023/07/28 07:17:51;;;;;;;11.55;7.50;;;19.10;89.70;;;;;;5077223;28;20069;-75
2023/07/28 07:20:20;;;;;;;15.68;7.93;;;19.10;89.50;;;;;;5053620;28;20435;-75
2023/07/28 07:22:47;;;;;;;14.80;8.10;;;19.20;89.30;;;;;;5053217;28;20053;-75
2023/07/28 07:25:14;;;;;;;12.27;6.57;;;19.20;89.10;;;;;;5054544;28;20053;-75
2023/07/28 07:27:41;;;;;;;11.70;5.57;;;19.20;89.10;;;;;;5055906;28;20057;-75
2023/07/28 07:30:09;;;;;;;12.40;7.07;;;19.20;89.20;;;;;;5052257;28;20060;-75
2023/07/28 07:32:36;;;;;;;14.23;7.22;;;19.20;89.20;;;;;;5078249;28;20052;-76
2023/07/28 07:35:03;;;;;;;14.63;7.80;;;19.20;89.30;;;;;;5051313;28;20607;-76
2023/07/28 07:37:32;;;;;;;11.85;6.97;;;19.20;89.50;;;;;;5045816;28;20053;-75
2023/07/28 07:40:00;;;;;;;16.97;8.13;;;19.30;89.50;;;;;;5046571;28;20049;-75
2023/07/28 07:42:26;;;;;;;10.82;7.00;;;19.30;89.50;;;;;;5031297;28;20886;-75
2023/07/28 07:44:53;;;;;;;13.23;7.28;;;19.30;89.40;;;;;;5046350;28;20419;-75
2023/07/28 07:47:20;;;;;;;11.50;5.85;;;19.30;89.10;;;;;;5046322;28;20142;-74
2023/07/28 07:49:49;;;;;;;13.32;7.90;;;19.30;89.10;;;;;;5049706;28;20054;-75
2023/07/28 07:52:16;;;;;;;15.53;8.30;;;19.40;89.10;;;;;;5055975;28;20053;-75
2023/07/28 07:54:44;;;;;;;12.60;7.95;;;19.40;89.20;;;;;;5079747;28;20136;-75
2023/07/28 07:57:11;;;;;;;14.77;8.77;;;19.40;89.30;;;;;;5041877;28;20056;-75
2023/07/28 07:59:38;;;;;;;11.45;7.53;;;19.50;89.20;;;;;;5065078;28;20050;-75
2023/07/28 08:02:05;;;;;;;13.13;7.20;;;19.50;89.10;;;;;;5053627;28;20164;-76
2023/07/28 08:04:32;;;;;;;11.93;6.77;;;19.50;89.00;;;;;;5050318;28;20084;-75
2023/07/28 08:06:59;;;;;;;12.65;7.15;;;19.50;89.00;;;;;;5047956;28;20129;-76
2023/07/28 08:09:27;;;;;;;15.65;7.95;;;19.50;88.90;;;;;;5049286;28;20132;-75
2023/07/28 08:11:55;;;;;;;12.20;7.80;;;19.50;88.80;;;;;;5047152;28;20616;-75
2023/07/28 08:14:22;;;;;;;14.20;6.95;;;19.50;88.80;;;;;;5047968;28;20612;-75
2023/07/28 08:16:49;;;;;;;10.40;6.50;;;19.60;88.70;;;;;;5049101;28;20139;-75
2023/07/28 08:19:16;;;;;;;12.43;6.53;;;19.60;88.90;;;;;;5046869;28;20526;-74
2023/07/28 08:21:43;;;;;;;13.18;6.90;;;19.70;88.70;;;;;;5047852;28;20045;-76
2023/07/28 08:24:11;;;;;;;11.32;7.18;;;19.70;88.90;;;;;;5049203;28;20203;-76
2023/07/28 08:26:38;;;;;;;12.40;6.50;;;19.70;88.90;;;;;;5032834;28;20060;-76
2023/07/28 08:29:06;;;;;;;10.23;5.17;;;19.70;88.60;;;;;;5050368;28;20061;-75
2023/07/28 08:31:33;;;;;;;10.23;5.65;;;19.90;88.20;;;;;;5050447;28;20124;-75
2023/07/28 08:34:00;;;;;;;11.52;5.07;;;19.90;88.20;;;;;;5049076;28;20052;-75
2023/07/28 08:36:27;;;;;;;9.68;4.38;;;20.00;87.60;;;;;;5048351;28;20153;-75
2023/07/28 08:38:54;;;;;;;8.90;5.07;;;20.00;86.90;;;;;;5050664;28;20108;-75
2023/07/28 08:41:21;;;;;;;10.87;5.30;;;20.00;86.50;;;;;;5048992;28;20037;-76
2023/07/28 08:43:50;;;;;;;8.18;4.25;;;20.10;86.60;;;;;;5048674;28;20579;-75
2023/07/28 08:46:19;;;;;;;9.32;4.60;;;20.10;86.40;;;;;;5050237;28;21145;-75
2023/07/28 08:48:46;;;;;;;9.27;4.40;;;20.10;86.40;;;;;;5049240;28;20054;-75
2023/07/28 08:51:13;;;;;;;10.05;5.18;;;20.20;86.20;;;;;;5047957;28;20045;-75
2023/07/28 08:53:40;;;;;;;8.70;4.87;;;20.30;85.60;;;;;;5047811;28;20057;-75
2023/07/28 08:56:07;;;;;;;7.78;4.50;;;20.30;85.20;;;;;;5048573;28;20053;-75
2023/07/28 08:58:34;;;;;;;12.65;3.83;;;20.30;84.90;;;;;;5048309;28;20127;-75
2023/07/28 09:01:01;;;;;;;8.13;4.25;;;20.40;85.10;;;;;;5048359;28;20052;-75
2023/07/28 09:03:31;;;;;;;7.63;3.28;;;20.50;85.40;;;;;;5048559;28;20045;-76
2023/07/28 09:06:01;;;;;;;7.33;4.03;;;20.50;84.80;;;;;;5032399;28;20053;-76
2023/07/28 09:08:28;;;;;;;7.07;3.63;;;20.50;84.60;;;;;;5032163;28;20045;-76
2023/07/28 09:10:56;;;;;;;6.32;2.67;;;20.60;84.60;;;;;;5030718;28;20723;-75
2023/07/28 09:13:23;;;;;;;6.82;3.35;;;20.60;83.50;;;;;;5050524;28;20056;-75
2023/07/28 09:15:49;;;;;;;8.38;4.35;;;20.70;83.60;;;;;;5048210;28;20041;-75
2023/07/28 09:18:18;;;;;;;6.37;2.57;;;20.70;83.20;;;;;;5050325;28;20124;-76
2023/07/28 09:20:46;;;;;;;8.18;3.22;;;20.80;82.70;;;;;;5031855;28;20096;-75
2023/07/28 09:23:15;;;;;;;8.55;3.35;;;20.80;82.60;;;;;;5048507;28;20057;-75
2023/07/28 09:25:42;;;;;;;6.90;3.72;;;20.80;82.20;;;;;;5048572;28;20049;-75
2023/07/28 09:28:10;;;;;;;7.70;3.42;;;20.80;82.40;;;;;;5047408;28;20818;-75
2023/07/28 09:30:49;;;;;;;8.13;3.70;;;20.80;82.20;;;;;;5048268;28;20050;-75
2023/07/28 09:33:30;;;;;;;8.10;3.78;;;20.90;82.30;;;;;;5049573;28;20053;-76
2023/07/28 09:35:58;;;;;;;7.28;3.58;;;20.90;82.20;;;;;;5048105;28;20634;-76
2023/07/28 09:38:29;;;;;;;7.05;3.90;;;20.90;82.00;;;;;;5047875;28;20511;-76
2023/07/28 09:40:58;;;;;;;6.18;3.55;;;21.00;81.90;;;;;;5048434;28;20053;-76
2023/07/28 09:43:25;;;;;;;6.47;3.77;;;21.00;80.90;;;;;;5048014;28;20053;-76
2023/07/28 09:45:52;;;;;;;7.50;3.90;;;21.00;81.20;;;;;;5048648;28;20442;-76
2023/07/28 09:48:20;;;;;;;7.22;3.90;;;21.10;81.10;;;;;;5047658;28;20084;-76
2023/07/28 09:50:47;;;;;;;7.40;3.92;;;21.10;81.70;;;;;;5047458;28;20137;-76
2023/07/28 09:53:17;;;;;;;8.48;3.70;;;21.10;81.70;;;;;;5031443;28;20555;-76
2023/07/28 09:55:44;;;;;;;7.93;4.70;;;21.10;81.10;;;;;;5082065;28;20058;-76
2023/07/28 09:58:14;;;;;;;8.13;4.80;;;21.10;80.80;;;;;;5047692;28;20049;-76
2023/07/28 10:00:42;;;;;;;7.95;4.50;;;21.10;80.80;;;;;;5047896;28;20072;-76
2023/07/28 10:03:10;;;;;;;8.20;5.07;;;21.10;81.20;;;;;;5046665;28;20080;-76
2023/07/28 10:05:38;;;;;;;7.13;3.45;;;21.10;81.60;;;;;;5047893;28;20049;-76
2023/07/28 10:08:06;;;;;;;9.20;3.47;;;21.10;80.90;;;;;;5047792;28;20050;-76
2023/07/28 10:10:35;;;;;;;7.57;4.28;;;21.10;79.30;;;;;;5030637;28;20042;-75
2023/07/28 10:13:02;;;;;;;7.45;4.38;;;21.10;79.20;;;;;;5047228;28;20046;-76
2023/07/28 10:15:31;;;;;;;8.52;4.10;;;21.20;79.40;;;;;;5031010;28;20050;-76
2023/07/28 10:17:59;;;;;;;6.30;3.10;;;21.20;79.70;;;;;;5047502;28;20050;-76
2023/07/28 10:20:35;;;;;;;6.00;3.00;;;21.30;80.30;;;;;;5047956;28;20042;-76
2023/07/28 10:23:08;;;;;;;7.72;3.33;;;21.40;78.40;;;;;;5046916;28;20507;-76
2023/07/28 10:25:38;;;;;;;5.57;3.58;;;21.40;79.00;;;;;;5049157;28;20057;-76
2023/07/28 10:28:06;;;;;;;5.53;2.55;;;21.50;78.00;;;;;;5047149;28;20514;-76
2023/07/28 10:30:38;;;;;;;6.72;3.70;;;21.50;77.30;;;;;;5047043;28;20048;-76
2023/07/28 10:33:05;;;;;;;6.70;2.93;;;21.50;77.10;;;;;;5047202;28;20054;-75
2023/07/28 10:35:34;;;;;;;6.65;4.00;;;21.60;77.40;;;;;;5047336;28;20041;-76
2023/07/28 10:38:31;;;;;;;5.47;2.78;;;21.70;77.00;;;;;;5047767;28;20187;-76
2023/07/28 10:41:14;;;;;;;7.18;4.45;;;21.70;77.10;;;;;;5048457;28;20077;-75
2023/07/28 10:43:42;;;;;;;5.75;4.05;;;21.70;77.30;;;;;;5046995;28;20666;-76
2023/07/28 10:46:10;;;;;;;5.83;3.47;;;21.80;77.10;;;;;;5047094;28;20047;-76
2023/07/28 10:48:39;;;;;;;7.50;4.80;;;21.80;77.00;;;;;;5047145;28;20504;-76
2023/07/28 10:51:06;;;;;;;9.15;4.80;;;21.80;77.20;;;;;;5048463;28;20539;-76
2023/07/28 10:53:34;;;;;;;7.18;4.72;;;21.90;76.70;;;;;;5047196;28;20546;-76
2023/07/28 10:56:03;;;;;;;8.13;4.80;;;21.90;76.90;;;;;;5048373;28;20495;-76
2023/07/28 10:58:32;;;;;;;8.20;4.90;;;21.90;76.70;;;;;;5046803;28;20050;-76
2023/07/28 11:00:59;;;;;;;8.43;4.97;;;21.90;77.50;;;;;;5046627;28;20075;-76
2023/07/28 11:03:26;;;;;;;8.07;4.07;;;21.90;78.00;;;;;;5046318;28;20056;-76
2023/07/28 11:05:56;;;;;;;8.15;4.68;;;22.00;78.70;;;;;;5048129;28;20054;-76
2023/07/28 11:08:24;;;;;;;7.78;4.13;;;22.00;75.40;;;;;;5047103;28;20049;-76
2023/07/28 11:10:51;;;;;;;8.70;5.23;;;22.10;74.70;;;;;;5046295;28;20056;-76
2023/07/28 11:13:18;;;;;;;7.93;5.63;;;22.10;74.80;;;;;;5047041;28;20579;-76
2023/07/28 11:15:47;;;;;;;9.07;5.40;;;22.10;75.70;;;;;;5033264;28;20054;-76
2023/07/28 11:18:17;;;;;;;8.20;5.80;;;22.10;76.40;;;;;;5049901;28;20145;-76
2023/07/28 11:20:44;;;;;;;9.25;5.82;;;22.10;76.90;;;;;;5049979;28;20042;-76
2023/07/28 11:23:15;;;;;;;9.30;5.40;;;22.10;77.20;;;;;;5045603;28;20513;-76
2023/07/28 11:25:44;;;;;;;9.30;5.88;;;22.20;77.50;;;;;;5063179;28;20085;-76
2023/07/28 11:28:11;;;;;;;9.75;5.47;;;22.20;77.60;;;;;;5032207;28;20532;-76
2023/07/28 11:30:39;;;;;;;10.77;6.10;;;22.30;77.90;;;;;;5080180;28;20045;-76
2023/07/28 11:33:10;;;;;;;9.05;6.13;;;22.30;78.00;;;;;;5050180;28;20058;-76
2023/07/28 11:35:38;;;;;;;8.50;5.30;;;22.30;78.30;;;;;;5051546;28;20522;-76
2023/07/28 11:38:05;;;;;;;9.95;6.40;;;22.30;77.70;;;;;;5051417;28;20442;-76
2023/07/28 11:40:32;;;;;;;10.43;6.35;;;22.30;77.00;;;;;;5049499;28;20077;-76
2023/07/28 11:43:00;;;;;;;9.48;6.25;;;22.30;77.30;;;;;;5049681;28;20057;-76
2023/07/28 11:45:27;;;;;;;12.00;6.55;;;22.30;77.30;;;;;;5051461;28;20049;-76
2023/07/28 11:47:57;;;;;;;9.77;6.13;;;22.20;77.80;;;;;;5048306;28;20048;-75
2023/07/28 11:50:26;;;;;;;11.00;6.78;;;22.10;78.20;;;;;;5049492;28;20037;-76
2023/07/28 11:52:53;;;;;;;8.82;5.75;;;22.10;78.90;;;;;;5050891;28;20144;-76
2023/07/28 11:55:22;;;;;;;10.65;6.43;;;22.00;79.60;;;;;;5033029;28;20049;-76
2023/07/28 11:57:49;;;;;;;10.40;6.78;;;22.10;79.60;;;;;;5049706;28;20071;-76
2023/07/28 12:00:17;;;;;;;11.30;7.30;;;22.10;79.50;;;;;;5050898;28;20536;-76
2023/07/28 12:02:45;;;;;;;10.38;6.20;;;22.10;78.80;;;;;;5049210;28;20056;-76
2023/07/28 12:05:16;;;;;;;10.68;6.68;;;22.10;78.00;;;;;;5048265;28;20053;-76
2023/07/28 12:07:48;;;;;;;10.27;6.53;;;22.10;78.00;;;;;;5051474;28;20507;-76
2023/07/28 12:10:17;;;;;;;11.98;6.82;;;22.10;78.30;;;;;;5050357;28;20055;-76
2023/07/28 12:12:47;;;;;;;8.73;5.10;;;22.20;77.70;;;;;;5048887;28;20049;-76
2023/07/28 12:15:23;;;;;;;8.68;6.47;;;22.20;78.30;;;;;;5050862;28;20512;-76
2023/07/28 12:18:09;;;;;;;11.45;6.60;;;22.20;78.30;;;;;;5051259;28;20535;-76
2023/07/28 12:20:37;;;;;;;10.85;6.90;;;22.30;78.10;;;;;;5049339;28;20096;-75
2023/07/28 12:23:06;;;;;;;15.50;8.20;;;22.30;77.90;;;;;;5045048;28;20062;-76
2023/07/28 12:25:33;;;;;;;8.57;5.67;;;22.30;78.20;;;;;;5048169;28;20050;-76
2023/07/28 12:28:00;;;;;;;8.40;5.45;;;22.40;77.70;;;;;;5049152;28;20049;-76
2023/07/28 12:30:27;;;;;;;10.85;6.15;;;22.50;77.40;;;;;;5048423;28;20037;-76
2023/07/28 12:32:54;;;;;;;8.52;5.70;;;22.50;77.10;;;;;;5048912;28;20060;-76
2023/07/28 12:35:23;;;;;;;9.52;6.30;;;22.50;76.10;;;;;;5050217;28;20064;-76
2023/07/28 12:37:50;;;;;;;8.37;5.37;;;22.50;76.30;;;;;;5050612;28;20060;-76
2023/07/28 12:40:20;;;;;;;10.23;5.20;;;22.40;76.60;;;;;;5047705;28;20088;-76
2023/07/28 12:42:47;;;;;;;9.55;5.97;;;22.40;75.70;;;;;;5048935;28;20108;-76
2023/07/28 12:45:15;;;;;;;8.40;5.63;;;22.40;75.70;;;;;;5032230;28;20499;-76
2023/07/28 12:47:43;;;;;;;8.10;4.90;;;22.30;76.20;;;;;;5048631;28;20084;-76